sensor_id;sensor_type;location;lat;lon;timestamp;temperature;humidity
54178;DHT22;40085;53.004;6.770;2024-03-25T00:01:39;5.70;99.90
54178;DHT22;40085;53.004;6.770;2024-03-25T00:04:05;6.60;99.90
54178;DHT22;40085;53.004;6.770;2024-03-25T00:06:31;5.60;99.90
54178;DHT22;40085;53.004;6.770;2024-03-25T00:09:02;5.60;99.90
54178;DHT22;40085;53.004;6.770;2024-03-25T00:11:28;5.50;99.90
54178;DHT22;40085;53.004;6.770;2024-03-25T00:13:54;5.70;99.90
54178;DHT22;40085;53.004;6.770;2024-03-25T00:16:20;5.40;99.90
54178;DHT22;40085;53.004;6.770;2024-03-25T00:18:46;5.80;99.90
54178;DHT22;40085;53.004;6.770;2024-03-25T00:21:12;5.30;99.90
54178;DHT22;40085;53.004;6.770;2024-03-25T00:23:37;5.30;99.90
54178;DHT22;40085;53.004;6.770;2024-03-25T00:26:03;5.30;99.90
54178;DHT22;40085;53.004;6.770;2024-03-25T00:28:29;5.20;99.90
54178;DHT22;40085;53.004;6.770;2024-03-25T00:30:54;5.10;99.90
54178;DHT22;40085;53.004;6.770;2024-03-25T00:33:20;5.10;99.90
54178;DHT22;40085;53.004;6.770;2024-03-25T00:35:46;5.40;99.90
54178;DHT22;40085;53.004;6.770;2024-03-25T00:38:12;5.10;99.90
54178;DHT22;40085;53.004;6.770;2024-03-25T00:40:38;5.20;99.90
54178;DHT22;40085;53.004;6.770;2024-03-25T00:43:04;5.00;99.90
54178;DHT22;40085;53.004;6.770;2024-03-25T00:45:29;5.50;99.90
54178;DHT22;40085;53.004;6.770;2024-03-25T00:47:58;5.30;99.90
54178;DHT22;40085;53.004;6.770;2024-03-25T00:50:25;6.20;99.90
54178;DHT22;40085;53.004;6.770;2024-03-25T00:52:51;5.40;99.90
54178;DHT22;40085;53.004;6.770;2024-03-25T00:55:17;5.50;99.90
54178;DHT22;40085;53.004;6.770;2024-03-25T00:57:57;5.70;99.90
54178;DHT22;40085;53.004;6.770;2024-03-25T01:00:22;5.70;99.90
54178;DHT22;40085;53.004;6.770;2024-03-25T01:02:48;5.30;99.90
54178;DHT22;40085;53.004;6.770;2024-03-25T01:05:14;5.60;99.90
54178;DHT22;40085;53.004;6.770;2024-03-25T01:07:39;5.50;99.90
54178;DHT22;40085;53.004;6.770;2024-03-25T01:10:05;5.50;99.90
54178;DHT22;40085;53.004;6.770;2024-03-25T01:12:31;5.50;99.90
54178;DHT22;40085;53.004;6.770;2024-03-25T01:14:57;5.70;99.90
54178;DHT22;40085;53.004;6.770;2024-03-25T01:17:23;5.40;99.90
54178;DHT22;40085;53.004;6.770;2024-03-25T01:19:49;5.20;99.90
54178;DHT22;40085;53.004;6.770;2024-03-25T01:22:14;5.50;99.90
54178;DHT22;40085;53.004;6.770;2024-03-25T01:24:40;5.40;99.90
54178;DHT22;40085;53.004;6.770;2024-03-25T01:27:06;5.40;99.90
54178;DHT22;40085;53.004;6.770;2024-03-25T01:29:32;5.20;99.90
54178;DHT22;40085;53.004;6.770;2024-03-25T01:31:58;6.00;99.90
54178;DHT22;40085;53.004;6.770;2024-03-25T01:34:25;5.10;99.90
54178;DHT22;40085;53.004;6.770;2024-03-25T01:36:51;5.10;99.90
54178;DHT22;40085;53.004;6.770;2024-03-25T01:39:18;5.30;99.90
54178;DHT22;40085;53.004;6.770;2024-03-25T01:41:44;5.50;99.90
54178;DHT22;40085;53.004;6.770;2024-03-25T01:44:10;5.30;99.90
54178;DHT22;40085;53.004;6.770;2024-03-25T01:46:36;5.40;99.90
54178;DHT22;40085;53.004;6.770;2024-03-25T01:49:02;5.30;99.90
54178;DHT22;40085;53.004;6.770;2024-03-25T01:51:28;5.10;99.90
54178;DHT22;40085;53.004;6.770;2024-03-25T01:53:55;5.30;99.90
54178;DHT22;40085;53.004;6.770;2024-03-25T01:56:23;6.00;99.90
54178;DHT22;40085;53.004;6.770;2024-03-25T01:58:56;5.10;99.90
54178;DHT22;40085;53.004;6.770;2024-03-25T02:01:22;5.20;99.90
54178;DHT22;40085;53.004;6.770;2024-03-25T02:03:48;5.50;99.90
54178;DHT22;40085;53.004;6.770;2024-03-25T02:06:17;5.10;99.90
54178;DHT22;40085;53.004;6.770;2024-03-25T02:08:43;5.40;99.90
54178;DHT22;40085;53.004;6.770;2024-03-25T02:11:10;5.20;99.90
54178;DHT22;40085;53.004;6.770;2024-03-25T02:13:39;5.40;99.90
54178;DHT22;40085;53.004;6.770;2024-03-25T02:16:05;5.70;99.90
54178;DHT22;40085;53.004;6.770;2024-03-25T02:18:31;5.10;99.90
54178;DHT22;40085;53.004;6.770;2024-03-25T02:20:58;5.10;99.90
54178;DHT22;40085;53.004;6.770;2024-03-25T02:23:24;5.10;99.90
54178;DHT22;40085;53.004;6.770;2024-03-25T02:25:51;5.20;99.90
54178;DHT22;40085;53.004;6.770;2024-03-25T02:28:18;5.50;99.90
54178;DHT22;40085;53.004;6.770;2024-03-25T02:30:44;5.20;99.90
54178;DHT22;40085;53.004;6.770;2024-03-25T02:33:10;5.20;99.90
54178;DHT22;40085;53.004;6.770;2024-03-25T02:35:37;5.00;99.90
54178;DHT22;40085;53.004;6.770;2024-03-25T02:38:07;5.50;99.90
54178;DHT22;40085;53.004;6.770;2024-03-25T02:40:34;5.10;99.90
54178;DHT22;40085;53.004;6.770;2024-03-25T02:43:01;5.10;99.90
54178;DHT22;40085;53.004;6.770;2024-03-25T02:45:27;5.50;99.90
54178;DHT22;40085;53.004;6.770;2024-03-25T02:47:53;5.40;99.90
54178;DHT22;40085;53.004;6.770;2024-03-25T02:50:19;4.90;99.90
54178;DHT22;40085;53.004;6.770;2024-03-25T02:52:45;5.10;99.90
54178;DHT22;40085;53.004;6.770;2024-03-25T02:55:10;5.40;99.90
54178;DHT22;40085;53.004;6.770;2024-03-25T02:57:50;5.30;99.90
54178;DHT22;40085;53.004;6.770;2024-03-25T03:00:15;5.60;99.90
54178;DHT22;40085;53.004;6.770;2024-03-25T03:02:41;5.20;99.90
54178;DHT22;40085;53.004;6.770;2024-03-25T03:05:10;5.40;99.90
54178;DHT22;40085;53.004;6.770;2024-03-25T03:07:35;5.20;99.90
54178;DHT22;40085;53.004;6.770;2024-03-25T03:10:01;5.70;99.90
54178;DHT22;40085;53.004;6.770;2024-03-25T03:12:27;5.20;99.90
54178;DHT22;40085;53.004;6.770;2024-03-25T03:14:53;5.40;99.90
54178;DHT22;40085;53.004;6.770;2024-03-25T03:17:19;5.20;99.90
54178;DHT22;40085;53.004;6.770;2024-03-25T03:19:45;5.20;99.90
54178;DHT22;40085;53.004;6.770;2024-03-25T03:22:10;5.20;99.90
54178;DHT22;40085;53.004;6.770;2024-03-25T03:24:36;5.20;99.90
54178;DHT22;40085;53.004;6.770;2024-03-25T03:27:02;5.40;99.90
54178;DHT22;40085;53.004;6.770;2024-03-25T03:29:28;5.20;99.90
54178;DHT22;40085;53.004;6.770;2024-03-25T03:31:53;5.30;99.90
54178;DHT22;40085;53.004;6.770;2024-03-25T03:34:22;5.40;99.90
54178;DHT22;40085;53.004;6.770;2024-03-25T03:36:48;5.10;99.90
54178;DHT22;40085;53.004;6.770;2024-03-25T03:39:15;5.30;99.90
54178;DHT22;40085;53.004;6.770;2024-03-25T03:41:41;5.30;99.90
54178;DHT22;40085;53.004;6.770;2024-03-25T03:44:06;5.30;99.90
54178;DHT22;40085;53.004;6.770;2024-03-25T03:46:32;5.30;99.90
54178;DHT22;40085;53.004;6.770;2024-03-25T03:48:58;5.30;99.90
54178;DHT22;40085;53.004;6.770;2024-03-25T03:51:23;5.20;99.90
54178;DHT22;40085;53.004;6.770;2024-03-25T03:53:49;5.30;99.90
54178;DHT22;40085;53.004;6.770;2024-03-25T03:56:15;5.30;99.90
54178;DHT22;40085;53.004;6.770;2024-03-25T03:58:46;5.60;99.90
54178;DHT22;40085;53.004;6.770;2024-03-25T04:01:16;5.80;99.90
54178;DHT22;40085;53.004;6.770;2024-03-25T04:03:42;5.40;99.90
54178;DHT22;40085;53.004;6.770;2024-03-25T04:06:12;5.30;99.90
54178;DHT22;40085;53.004;6.770;2024-03-25T04:08:39;5.80;99.90
54178;DHT22;40085;53.004;6.770;2024-03-25T04:11:05;6.60;99.90
54178;DHT22;40085;53.004;6.770;2024-03-25T04:13:32;5.40;99.90
54178;DHT22;40085;53.004;6.770;2024-03-25T04:16:01;5.40;99.90
54178;DHT22;40085;53.004;6.770;2024-03-25T04:18:28;5.30;99.90
54178;DHT22;40085;53.004;6.770;2024-03-25T04:20:58;5.40;99.90
54178;DHT22;40085;53.004;6.770;2024-03-25T04:23:24;5.30;99.90
54178;DHT22;40085;53.004;6.770;2024-03-25T04:25:50;5.50;99.90
54178;DHT22;40085;53.004;6.770;2024-03-25T04:28:16;5.40;99.90
54178;DHT22;40085;53.004;6.770;2024-03-25T04:30:42;5.30;99.90
54178;DHT22;40085;53.004;6.770;2024-03-25T04:33:08;5.30;99.90
54178;DHT22;40085;53.004;6.770;2024-03-25T04:35:34;5.60;99.90
54178;DHT22;40085;53.004;6.770;2024-03-25T04:38:00;5.30;99.90
54178;DHT22;40085;53.004;6.770;2024-03-25T04:40:26;5.20;99.90
54178;DHT22;40085;53.004;6.770;2024-03-25T04:42:52;5.20;99.90
54178;DHT22;40085;53.004;6.770;2024-03-25T04:45:17;5.40;99.90
54178;DHT22;40085;53.004;6.770;2024-03-25T04:47:43;5.20;99.90
54178;DHT22;40085;53.004;6.770;2024-03-25T04:50:09;5.40;99.90
54178;DHT22;40085;53.004;6.770;2024-03-25T04:52:35;5.30;99.90
54178;DHT22;40085;53.004;6.770;2024-03-25T04:55:01;5.30;99.90
54178;DHT22;40085;53.004;6.770;2024-03-25T04:57:40;5.40;99.90
54178;DHT22;40085;53.004;6.770;2024-03-25T05:00:06;5.40;99.90
54178;DHT22;40085;53.004;6.770;2024-03-25T05:02:37;5.30;99.90
54178;DHT22;40085;53.004;6.770;2024-03-25T05:05:03;5.10;99.90
54178;DHT22;40085;53.004;6.770;2024-03-25T05:07:29;4.90;99.90
54178;DHT22;40085;53.004;6.770;2024-03-25T05:09:54;5.70;99.90
54178;DHT22;40085;53.004;6.770;2024-03-25T05:12:21;5.10;99.90
54178;DHT22;40085;53.004;6.770;2024-03-25T05:14:47;5.00;99.90
54178;DHT22;40085;53.004;6.770;2024-03-25T05:17:12;5.50;99.90
54178;DHT22;40085;53.004;6.770;2024-03-25T05:19:38;5.10;99.90
54178;DHT22;40085;53.004;6.770;2024-03-25T05:22:04;5.20;99.90
54178;DHT22;40085;53.004;6.770;2024-03-25T05:24:30;5.00;99.90
54178;DHT22;40085;53.004;6.770;2024-03-25T05:26:56;4.70;99.90
54178;DHT22;40085;53.004;6.770;2024-03-25T05:29:21;5.00;99.90
54178;DHT22;40085;53.004;6.770;2024-03-25T05:31:58;5.00;99.90
54178;DHT22;40085;53.004;6.770;2024-03-25T05:34:24;4.80;99.90
54178;DHT22;40085;53.004;6.770;2024-03-25T05:36:50;4.80;99.90
54178;DHT22;40085;53.004;6.770;2024-03-25T05:39:16;4.70;99.90
54178;DHT22;40085;53.004;6.770;2024-03-25T05:41:42;5.20;99.90
54178;DHT22;40085;53.004;6.770;2024-03-25T05:44:08;4.40;99.90
54178;DHT22;40085;53.004;6.770;2024-03-25T05:46:34;4.70;99.90
54178;DHT22;40085;53.004;6.770;2024-03-25T05:49:03;5.10;99.90
54178;DHT22;40085;53.004;6.770;2024-03-25T05:51:30;4.80;99.90
54178;DHT22;40085;53.004;6.770;2024-03-25T05:53:56;4.70;99.90
54178;DHT22;40085;53.004;6.770;2024-03-25T05:56:21;4.80;99.90
54178;DHT22;40085;53.004;6.770;2024-03-25T05:58:57;5.20;99.90
54178;DHT22;40085;53.004;6.770;2024-03-25T06:01:22;4.90;99.90
54178;DHT22;40085;53.004;6.770;2024-03-25T06:03:48;4.90;99.90
54178;DHT22;40085;53.004;6.770;2024-03-25T06:06:14;4.90;99.90
54178;DHT22;40085;53.004;6.770;2024-03-25T06:08:40;4.80;99.90
54178;DHT22;40085;53.004;6.770;2024-03-25T06:11:06;5.60;99.90
54178;DHT22;40085;53.004;6.770;2024-03-25T06:13:31;5.10;99.90
54178;DHT22;40085;53.004;6.770;2024-03-25T06:15:58;5.30;99.90
54178;DHT22;40085;53.004;6.770;2024-03-25T06:18:24;4.70;99.90
54178;DHT22;40085;53.004;6.770;2024-03-25T06:20:50;5.30;99.90
54178;DHT22;40085;53.004;6.770;2024-03-25T06:23:27;4.80;99.90
54178;DHT22;40085;53.004;6.770;2024-03-25T06:25:54;4.80;99.90
54178;DHT22;40085;53.004;6.770;2024-03-25T06:28:21;4.80;99.90
54178;DHT22;40085;53.004;6.770;2024-03-25T06:30:48;5.00;99.90
54178;DHT22;40085;53.004;6.770;2024-03-25T06:33:33;5.00;99.90
54178;DHT22;40085;53.004;6.770;2024-03-25T06:36:18;5.20;99.90
54178;DHT22;40085;53.004;6.770;2024-03-25T06:38:44;5.10;99.90
54178;DHT22;40085;53.004;6.770;2024-03-25T06:41:10;5.00;99.90
54178;DHT22;40085;53.004;6.770;2024-03-25T06:43:36;5.10;99.90
54178;DHT22;40085;53.004;6.770;2024-03-25T06:46:04;5.30;99.90
54178;DHT22;40085;53.004;6.770;2024-03-25T06:48:29;5.50;99.90
54178;DHT22;40085;53.004;6.770;2024-03-25T06:50:59;5.60;99.90
54178;DHT22;40085;53.004;6.770;2024-03-25T06:53:25;6.10;99.90
54178;DHT22;40085;53.004;6.770;2024-03-25T06:55:55;6.00;99.90
54178;DHT22;40085;53.004;6.770;2024-03-25T06:58:35;5.90;99.90
54178;DHT22;40085;53.004;6.770;2024-03-25T07:01:06;5.90;99.90
54178;DHT22;40085;53.004;6.770;2024-03-25T07:03:32;5.90;99.90
54178;DHT22;40085;53.004;6.770;2024-03-25T07:05:59;6.10;99.90
54178;DHT22;40085;53.004;6.770;2024-03-25T07:08:26;6.10;99.90
54178;DHT22;40085;53.004;6.770;2024-03-25T07:10:53;6.40;99.90
54178;DHT22;40085;53.004;6.770;2024-03-25T07:13:19;6.30;99.90
54178;DHT22;40085;53.004;6.770;2024-03-25T07:15:45;6.40;99.90
54178;DHT22;40085;53.004;6.770;2024-03-25T07:18:11;6.10;99.90
54178;DHT22;40085;53.004;6.770;2024-03-25T07:20:42;6.10;99.90
54178;DHT22;40085;53.004;6.770;2024-03-25T07:23:09;6.10;99.90
54178;DHT22;40085;53.004;6.770;2024-03-25T07:25:35;6.10;99.90
54178;DHT22;40085;53.004;6.770;2024-03-25T07:28:02;6.50;99.90
54178;DHT22;40085;53.004;6.770;2024-03-25T07:30:28;6.20;99.90
54178;DHT22;40085;53.004;6.770;2024-03-25T07:32:58;6.40;99.90
54178;DHT22;40085;53.004;6.770;2024-03-25T07:35:24;6.60;99.90
54178;DHT22;40085;53.004;6.770;2024-03-25T07:37:50;6.70;99.90
54178;DHT22;40085;53.004;6.770;2024-03-25T07:40:19;7.00;99.90
54178;DHT22;40085;53.004;6.770;2024-03-25T07:42:45;7.00;99.90
54178;DHT22;40085;53.004;6.770;2024-03-25T07:45:11;6.90;99.90
54178;DHT22;40085;53.004;6.770;2024-03-25T07:47:37;7.00;99.90
54178;DHT22;40085;53.004;6.770;2024-03-25T07:50:03;7.20;99.90
54178;DHT22;40085;53.004;6.770;2024-03-25T07:52:29;7.20;99.90
54178;DHT22;40085;53.004;6.770;2024-03-25T07:54:55;7.30;99.90
54178;DHT22;40085;53.004;6.770;2024-03-25T07:57:21;7.40;99.90
54178;DHT22;40085;53.004;6.770;2024-03-25T07:59:53;7.50;99.90
54178;DHT22;40085;53.004;6.770;2024-03-25T08:02:19;7.50;99.90
54178;DHT22;40085;53.004;6.770;2024-03-25T08:04:45;7.60;99.90
54178;DHT22;40085;53.004;6.770;2024-03-25T08:07:10;7.70;99.90
54178;DHT22;40085;53.004;6.770;2024-03-25T08:09:37;7.80;99.90
54178;DHT22;40085;53.004;6.770;2024-03-25T08:12:02;8.10;99.90
54178;DHT22;40085;53.004;6.770;2024-03-25T08:14:28;8.40;99.90
54178;DHT22;40085;53.004;6.770;2024-03-25T08:16:54;8.80;99.90
54178;DHT22;40085;53.004;6.770;2024-03-25T08:19:20;8.60;99.90
54178;DHT22;40085;53.004;6.770;2024-03-25T08:21:48;8.50;99.90
54178;DHT22;40085;53.004;6.770;2024-03-25T08:24:14;8.20;99.90
54178;DHT22;40085;53.004;6.770;2024-03-25T08:29:07;7.70;99.90
54178;DHT22;40085;53.004;6.770;2024-03-25T08:31:33;7.50;99.90
54178;DHT22;40085;53.004;6.770;2024-03-25T08:33:58;7.70;99.90
54178;DHT22;40085;53.004;6.770;2024-03-25T08:36:24;7.30;99.90
54178;DHT22;40085;53.004;6.770;2024-03-25T08:38:50;7.30;99.90
54178;DHT22;40085;53.004;6.770;2024-03-25T08:41:16;7.80;99.90
54178;DHT22;40085;53.004;6.770;2024-03-25T08:43:42;7.30;99.90
54178;DHT22;40085;53.004;6.770;2024-03-25T08:46:07;7.30;99.90
54178;DHT22;40085;53.004;6.770;2024-03-25T08:48:33;7.30;99.90
54178;DHT22;40085;53.004;6.770;2024-03-25T08:50:59;7.30;99.90
54178;DHT22;40085;53.004;6.770;2024-03-25T08:53:25;7.30;99.90
54178;DHT22;40085;53.004;6.770;2024-03-25T08:55:50;7.30;99.90
54178;DHT22;40085;53.004;6.770;2024-03-25T08:58:29;7.40;99.90
54178;DHT22;40085;53.004;6.770;2024-03-25T09:00:55;7.50;99.90
54178;DHT22;40085;53.004;6.770;2024-03-25T09:03:20;7.60;99.90
54178;DHT22;40085;53.004;6.770;2024-03-25T09:05:47;7.50;99.90
54178;DHT22;40085;53.004;6.770;2024-03-25T09:08:13;7.70;99.90
54178;DHT22;40085;53.004;6.770;2024-03-25T09:10:38;7.70;99.90
54178;DHT22;40085;53.004;6.770;2024-03-25T09:13:23;7.80;99.90
54178;DHT22;40085;53.004;6.770;2024-03-25T09:15:49;8.30;99.90
54178;DHT22;40085;53.004;6.770;2024-03-25T09:18:15;8.20;99.90
54178;DHT22;40085;53.004;6.770;2024-03-25T09:20:40;8.40;99.90
54178;DHT22;40085;53.004;6.770;2024-03-25T09:23:06;8.40;99.90
54178;DHT22;40085;53.004;6.770;2024-03-25T09:25:33;8.60;99.90
54178;DHT22;40085;53.004;6.770;2024-03-25T09:27:58;8.90;99.90
54178;DHT22;40085;53.004;6.770;2024-03-25T09:30:24;9.00;99.90
54178;DHT22;40085;53.004;6.770;2024-03-25T09:32:50;9.10;99.90
54178;DHT22;40085;53.004;6.770;2024-03-25T09:35:16;9.00;99.90
54178;DHT22;40085;53.004;6.770;2024-03-25T09:37:41;9.00;99.90
54178;DHT22;40085;53.004;6.770;2024-03-25T09:40:08;9.00;99.90
54178;DHT22;40085;53.004;6.770;2024-03-25T09:42:48;8.90;99.90
54178;DHT22;40085;53.004;6.770;2024-03-25T09:45:16;8.90;99.90
54178;DHT22;40085;53.004;6.770;2024-03-25T09:47:45;8.70;99.90
54178;DHT22;40085;53.004;6.770;2024-03-25T09:50:13;8.70;99.90
54178;DHT22;40085;53.004;6.770;2024-03-25T09:52:47;8.70;99.90
54178;DHT22;40085;53.004;6.770;2024-03-25T09:55:13;8.90;99.90
54178;DHT22;40085;53.004;6.770;2024-03-25T09:57:40;9.10;99.90
54178;DHT22;40085;53.004;6.770;2024-03-25T10:00:13;9.20;99.90
54178;DHT22;40085;53.004;6.770;2024-03-25T10:02:40;9.30;99.90
54178;DHT22;40085;53.004;6.770;2024-03-25T10:05:07;9.40;99.90
54178;DHT22;40085;53.004;6.770;2024-03-25T10:07:34;9.40;99.90
54178;DHT22;40085;53.004;6.770;2024-03-25T10:10:03;9.60;99.90
54178;DHT22;40085;53.004;6.770;2024-03-25T10:12:31;9.90;99.90
54178;DHT22;40085;53.004;6.770;2024-03-25T10:14:57;10.20;99.90
54178;DHT22;40085;53.004;6.770;2024-03-25T10:17:23;10.30;99.90
54178;DHT22;40085;53.004;6.770;2024-03-25T10:19:48;10.50;99.90
54178;DHT22;40085;53.004;6.770;2024-03-25T10:22:14;10.60;99.90
54178;DHT22;40085;53.004;6.770;2024-03-25T10:24:44;10.70;99.50
54178;DHT22;40085;53.004;6.770;2024-03-25T10:27:23;10.50;97.90
54178;DHT22;40085;53.004;6.770;2024-03-25T10:29:53;10.40;94.50
54178;DHT22;40085;53.004;6.770;2024-03-25T10:32:20;10.70;99.90
54178;DHT22;40085;53.004;6.770;2024-03-25T10:34:47;10.70;99.90
54178;DHT22;40085;53.004;6.770;2024-03-25T10:37:13;10.90;99.90
54178;DHT22;40085;53.004;6.770;2024-03-25T10:39:50;11.00;99.90
54178;DHT22;40085;53.004;6.770;2024-03-25T10:42:21;10.70;99.90
54178;DHT22;40085;53.004;6.770;2024-03-25T10:44:48;11.10;99.90
54178;DHT22;40085;53.004;6.770;2024-03-25T10:47:21;11.10;99.90
54178;DHT22;40085;53.004;6.770;2024-03-25T11:54:41;10.80;99.90
54178;DHT22;40085;53.004;6.770;2024-03-25T11:57:14;10.70;6.90
54178;DHT22;40085;53.004;6.770;2024-03-25T11:59:54;10.60;99.90
54178;DHT22;40085;53.004;6.770;2024-03-25T12:02:20;11.00;99.90
54178;DHT22;40085;53.004;6.770;2024-03-25T12:04:47;10.40;1.00
54178;DHT22;40085;53.004;6.770;2024-03-25T12:07:14;10.50;99.90
54178;DHT22;40085;53.004;6.770;2024-03-25T12:09:40;10.40;99.90
54178;DHT22;40085;53.004;6.770;2024-03-25T12:12:26;10.50;79.60
54178;DHT22;40085;53.004;6.770;2024-03-25T12:14:53;10.50;99.90
54178;DHT22;40085;53.004;6.770;2024-03-25T12:17:19;10.60;99.90
54178;DHT22;40085;53.004;6.770;2024-03-25T12:20:08;10.70;99.90
54178;DHT22;40085;53.004;6.770;2024-03-25T12:22:35;10.80;1.00
54178;DHT22;40085;53.004;6.770;2024-03-25T12:25:03;10.90;99.90
54178;DHT22;40085;53.004;6.770;2024-03-25T12:27:29;11.20;99.90
54178;DHT22;40085;53.004;6.770;2024-03-25T12:30:06;11.40;99.90
54178;DHT22;40085;53.004;6.770;2024-03-25T12:32:39;11.50;27.70
54178;DHT22;40085;53.004;6.770;2024-03-25T12:35:10;11.80;1.00
54178;DHT22;40085;53.004;6.770;2024-03-25T12:37:46;12.00;99.90
54178;DHT22;40085;53.004;6.770;2024-03-25T12:40:26;12.10;99.90
54178;DHT22;40085;53.004;6.770;2024-03-25T12:42:52;12.30;99.90
54178;DHT22;40085;53.004;6.770;2024-03-25T12:45:21;12.50;1.00
54178;DHT22;40085;53.004;6.770;2024-03-25T12:47:49;12.50;99.90
54178;DHT22;40085;53.004;6.770;2024-03-25T12:50:16;12.40;99.90
54178;DHT22;40085;53.004;6.770;2024-03-25T12:52:42;12.60;1.00
54178;DHT22;40085;53.004;6.770;2024-03-25T12:55:08;12.70;99.90
54178;DHT22;40085;53.004;6.770;2024-03-25T12:57:41;12.60;99.90
54178;DHT22;40085;53.004;6.770;2024-03-25T13:00:08;12.50;1.00
54178;DHT22;40085;53.004;6.770;2024-03-25T13:02:35;12.40;99.90
54178;DHT22;40085;53.004;6.770;2024-03-25T13:05:00;12.20;99.90
54178;DHT22;40085;53.004;6.770;2024-03-25T13:07:26;12.20;99.90
54178;DHT22;40085;53.004;6.770;2024-03-25T13:09:52;12.10;1.00
54178;DHT22;40085;53.004;6.770;2024-03-25T13:12:20;12.20;82.60
54178;DHT22;40085;53.004;6.770;2024-03-25T13:14:45;12.30;99.90
54178;DHT22;40085;53.004;6.770;2024-03-25T13:17:11;12.40;99.90
54178;DHT22;40085;53.004;6.770;2024-03-25T13:19:37;12.50;99.90
54178;DHT22;40085;53.004;6.770;2024-03-25T13:22:02;12.60;99.90
54178;DHT22;40085;53.004;6.770;2024-03-25T13:24:31;12.60;85.80
54178;DHT22;40085;53.004;6.770;2024-03-25T13:26:57;12.50;99.90
54178;DHT22;40085;53.004;6.770;2024-03-25T13:29:24;12.50;99.90
54178;DHT22;40085;53.004;6.770;2024-03-25T13:31:50;12.60;1.00
54178;DHT22;40085;53.004;6.770;2024-03-25T13:34:17;12.70;1.00
54178;DHT22;40085;53.004;6.770;2024-03-25T13:36:42;12.80;1.00
54178;DHT22;40085;53.004;6.770;2024-03-25T13:39:08;12.80;1.00
54178;DHT22;40085;53.004;6.770;2024-03-25T13:41:34;12.50;99.90
54178;DHT22;40085;53.004;6.770;2024-03-25T13:44:01;12.30;99.90
54178;DHT22;40085;53.004;6.770;2024-03-25T13:46:26;12.20;1.00
54178;DHT22;40085;53.004;6.770;2024-03-25T13:48:52;12.00;53.70
54178;DHT22;40085;53.004;6.770;2024-03-25T13:51:18;12.00;99.90
54178;DHT22;40085;53.004;6.770;2024-03-25T13:53:43;12.00;17.70
54178;DHT22;40085;53.004;6.770;2024-03-25T13:56:10;12.10;99.90
54178;DHT22;40085;53.004;6.770;2024-03-25T13:58:56;12.10;1.00
54178;DHT22;40085;53.004;6.770;2024-03-25T14:01:21;12.30;99.90
54178;DHT22;40085;53.004;6.770;2024-03-25T14:03:49;12.50;99.90
54178;DHT22;40085;53.004;6.770;2024-03-25T14:06:15;12.60;99.90
54178;DHT22;40085;53.004;6.770;2024-03-25T14:08:40;12.70;99.90
54178;DHT22;40085;53.004;6.770;2024-03-25T14:11:08;12.80;99.90
54178;DHT22;40085;53.004;6.770;2024-03-25T14:13:34;12.80;99.90
54178;DHT22;40085;53.004;6.770;2024-03-25T14:15:59;12.90;50.30
54178;DHT22;40085;53.004;6.770;2024-03-25T14:18:25;13.00;99.90
54178;DHT22;40085;53.004;6.770;2024-03-25T14:20:51;13.00;99.90
54178;DHT22;40085;53.004;6.770;2024-03-25T14:23:17;12.90;1.00
54178;DHT22;40085;53.004;6.770;2024-03-25T14:25:43;13.10;45.00
54178;DHT22;40085;53.004;6.770;2024-03-25T14:28:09;13.10;30.00
54178;DHT22;40085;53.004;6.770;2024-03-25T14:30:35;13.30;99.90
54178;DHT22;40085;53.004;6.770;2024-03-25T14:33:01;13.30;1.00
54178;DHT22;40085;53.004;6.770;2024-03-25T14:35:27;13.10;1.00
54178;DHT22;40085;53.004;6.770;2024-03-25T14:37:52;13.00;1.00
54178;DHT22;40085;53.004;6.770;2024-03-25T14:40:18;13.00;1.00
54178;DHT22;40085;53.004;6.770;2024-03-25T14:42:44;13.00;1.00
54178;DHT22;40085;53.004;6.770;2024-03-25T14:45:10;12.80;99.90
54178;DHT22;40085;53.004;6.770;2024-03-25T14:47:35;13.10;1.00
54178;DHT22;40085;53.004;6.770;2024-03-25T14:50:01;12.70;99.90
54178;DHT22;40085;53.004;6.770;2024-03-25T14:52:27;12.60;99.90
54178;DHT22;40085;53.004;6.770;2024-03-25T14:54:52;14.70;99.90
54178;DHT22;40085;53.004;6.770;2024-03-25T14:57:18;12.40;99.90
54178;DHT22;40085;53.004;6.770;2024-03-25T15:00:04;12.30;99.90
54178;DHT22;40085;53.004;6.770;2024-03-25T15:02:30;12.20;99.90
54178;DHT22;40085;53.004;6.770;2024-03-25T15:04:56;12.10;99.90
54178;DHT22;40085;53.004;6.770;2024-03-25T15:07:22;12.10;99.90
54178;DHT22;40085;53.004;6.770;2024-03-25T15:09:47;12.10;5.20
54178;DHT22;40085;53.004;6.770;2024-03-25T15:12:13;12.00;99.90
54178;DHT22;40085;53.004;6.770;2024-03-25T15:14:39;12.00;99.90
54178;DHT22;40085;53.004;6.770;2024-03-25T15:17:04;12.00;99.90
54178;DHT22;40085;53.004;6.770;2024-03-25T15:19:30;11.90;99.90
54178;DHT22;40085;53.004;6.770;2024-03-25T15:21:56;11.80;1.00
54178;DHT22;40085;53.004;6.770;2024-03-25T15:24:22;11.80;99.90
54178;DHT22;40085;53.004;6.770;2024-03-25T15:26:48;11.90;1.00
54178;DHT22;40085;53.004;6.770;2024-03-25T15:29:14;11.90;1.00
54178;DHT22;40085;53.004;6.770;2024-03-25T15:31:40;12.00;99.90
54178;DHT22;40085;53.004;6.770;2024-03-25T15:34:05;12.40;1.00
54178;DHT22;40085;53.004;6.770;2024-03-25T15:36:32;12.90;99.90
54178;DHT22;40085;53.004;6.770;2024-03-25T15:38:59;13.30;99.90
54178;DHT22;40085;53.004;6.770;2024-03-25T15:41:25;13.30;99.90
54178;DHT22;40085;53.004;6.770;2024-03-25T15:43:52;13.10;1.00
54178;DHT22;40085;53.004;6.770;2024-03-25T15:46:17;12.80;99.90
54178;DHT22;40085;53.004;6.770;2024-03-25T15:48:43;12.60;99.90
54178;DHT22;40085;53.004;6.770;2024-03-25T15:51:10;12.40;99.90
54178;DHT22;40085;53.004;6.770;2024-03-25T15:53:35;12.20;99.90
54178;DHT22;40085;53.004;6.770;2024-03-25T15:56:01;12.00;99.90
54178;DHT22;40085;53.004;6.770;2024-03-25T15:58:27;11.90;99.90
54178;DHT22;40085;53.004;6.770;2024-03-25T16:01:00;11.80;99.90
54178;DHT22;40085;53.004;6.770;2024-03-25T16:03:26;11.80;99.90
54178;DHT22;40085;53.004;6.770;2024-03-25T16:05:52;11.70;99.90
54178;DHT22;40085;53.004;6.770;2024-03-25T16:08:18;11.60;99.90
54178;DHT22;40085;53.004;6.770;2024-03-25T16:10:43;11.70;99.90
54178;DHT22;40085;53.004;6.770;2024-03-25T16:13:09;11.90;99.90
54178;DHT22;40085;53.004;6.770;2024-03-25T16:15:35;12.30;1.00
54178;DHT22;40085;53.004;6.770;2024-03-25T16:18:01;12.70;99.90
54178;DHT22;40085;53.004;6.770;2024-03-25T16:20:32;12.40;99.90
54178;DHT22;40085;53.004;6.770;2024-03-25T16:22:58;12.50;99.90
54178;DHT22;40085;53.004;6.770;2024-03-25T16:25:24;12.70;99.90
54178;DHT22;40085;53.004;6.770;2024-03-25T16:27:50;13.10;1.00
54178;DHT22;40085;53.004;6.770;2024-03-25T16:30:17;13.60;1.00
54178;DHT22;40085;53.004;6.770;2024-03-25T16:32:43;13.70;99.90
54178;DHT22;40085;53.004;6.770;2024-03-25T16:35:09;13.90;99.90
54178;DHT22;40085;53.004;6.770;2024-03-25T16:37:35;14.00;99.90
54178;DHT22;40085;53.004;6.770;2024-03-25T16:40:01;13.90;1.00
54178;DHT22;40085;53.004;6.770;2024-03-25T16:42:28;13.90;1.00
54178;DHT22;40085;53.004;6.770;2024-03-25T16:44:54;13.80;99.90
54178;DHT22;40085;53.004;6.770;2024-03-25T16:47:19;13.30;99.90
54178;DHT22;40085;53.004;6.770;2024-03-25T16:49:46;12.90;99.90